sensor_id;sensor_type;location;lat;lon;timestamp;P1;durP1;ratioP1;P2;durP2;ratioP2
28180;SDS011;15464;50.988;10.318;2023-06-19T00:00:45;6.13;;;5.63;;
28180;SDS011;15464;50.988;10.318;2023-06-19T00:03:12;7.05;;;6.45;;
28180;SDS011;15464;50.988;10.318;2023-06-19T00:05:39;6.78;;;6.18;;
28180;SDS011;15464;50.988;10.318;2023-06-19T00:08:05;9.57;;;5.68;;
28180;SDS011;15464;50.988;10.318;2023-06-19T00:10:33;7.32;;;6.60;;
28180;SDS011;15464;50.988;10.318;2023-06-19T00:12:59;6.55;;;5.95;;
28180;SDS011;15464;50.988;10.318;2023-06-19T00:15:26;7.05;;;6.35;;
28180;SDS011;15464;50.988;10.318;2023-06-19T00:17:58;6.63;;;5.85;;
28180;SDS011;15464;50.988;10.318;2023-06-19T00:20:26;7.05;;;6.35;;
28180;SDS011;15464;50.988;10.318;2023-06-19T00:22:52;6.43;;;5.93;;
28180;SDS011;15464;50.988;10.318;2023-06-19T00:25:19;6.60;;;6.03;;
28180;SDS011;15464;50.988;10.318;2023-06-19T00:27:46;6.78;;;6.07;;
28180;SDS011;15464;50.988;10.318;2023-06-19T00:30:14;7.03;;;6.32;;
28180;SDS011;15464;50.988;10.318;2023-06-19T00:32:41;7.35;;;6.40;;
28180;SDS011;15464;50.988;10.318;2023-06-19T00:35:16;6.75;;;5.88;;
28180;SDS011;15464;50.988;10.318;2023-06-19T00:37:48;7.13;;;6.43;;
28180;SDS011;15464;50.988;10.318;2023-06-19T00:40:28;6.55;;;5.70;;
28180;SDS011;15464;50.988;10.318;2023-06-19T00:42:57;7.68;;;6.50;;
28180;SDS011;15464;50.988;10.318;2023-06-19T00:45:24;6.97;;;6.38;;
28180;SDS011;15464;50.988;10.318;2023-06-19T00:47:52;7.75;;;6.53;;
28180;SDS011;15464;50.988;10.318;2023-06-19T00:50:21;7.13;;;6.30;;
28180;SDS011;15464;50.988;10.318;2023-06-19T00:52:49;6.95;;;6.25;;
28180;SDS011;15464;50.988;10.318;2023-06-19T00:55:16;7.05;;;6.45;;
28180;SDS011;15464;50.988;10.318;2023-06-19T00:57:43;8.75;;;6.60;;
28180;SDS011;15464;50.988;10.318;2023-06-19T01:00:11;6.65;;;6.05;;
28180;SDS011;15464;50.988;10.318;2023-06-19T01:02:39;7.70;;;7.10;;
28180;SDS011;15464;50.988;10.318;2023-06-19T01:05:06;7.13;;;6.43;;
28180;SDS011;15464;50.988;10.318;2023-06-19T01:10:14;6.90;;;6.30;;
28180;SDS011;15464;50.988;10.318;2023-06-19T01:12:48;6.72;;;6.03;;
28180;SDS011;15464;50.988;10.318;2023-06-19T01:15:19;6.88;;;6.15;;
28180;SDS011;15464;50.988;10.318;2023-06-19T01:17:46;7.90;;;6.70;;
28180;SDS011;15464;50.988;10.318;2023-06-19T01:20:15;7.90;;;7.20;;
28180;SDS011;15464;50.988;10.318;2023-06-19T01:22:42;7.95;;;7.25;;
28180;SDS011;15464;50.988;10.318;2023-06-19T01:25:10;7.38;;;6.47;;
28180;SDS011;15464;50.988;10.318;2023-06-19T01:27:40;6.85;;;6.25;;
28180;SDS011;15464;50.988;10.318;2023-06-19T01:30:09;6.85;;;6.25;;
28180;SDS011;15464;50.988;10.318;2023-06-19T01:33:00;7.30;;;6.60;;
28180;SDS011;15464;50.988;10.318;2023-06-19T01:35:35;7.22;;;6.63;;
28180;SDS011;15464;50.988;10.318;2023-06-19T01:38:04;7.47;;;6.63;;
28180;SDS011;15464;50.988;10.318;2023-06-19T01:40:33;7.47;;;6.77;;
28180;SDS011;15464;50.988;10.318;2023-06-19T01:43:01;7.30;;;6.70;;
28180;SDS011;15464;50.988;10.318;2023-06-19T01:45:28;7.13;;;6.28;;
28180;SDS011;15464;50.988;10.318;2023-06-19T01:47:56;7.53;;;6.90;;
28180;SDS011;15464;50.988;10.318;2023-06-19T01:50:23;7.93;;;6.57;;
28180;SDS011;15464;50.988;10.318;2023-06-19T01:52:51;8.98;;;7.15;;
28180;SDS011;15464;50.988;10.318;2023-06-19T01:55:18;7.78;;;7.18;;
28180;SDS011;15464;50.988;10.318;2023-06-19T01:57:46;6.88;;;6.28;;
28180;SDS011;15464;50.988;10.318;2023-06-19T02:00:12;7.18;;;6.47;;
28180;SDS011;15464;50.988;10.318;2023-06-19T02:02:39;7.18;;;6.50;;
28180;SDS011;15464;50.988;10.318;2023-06-19T02:05:06;7.65;;;6.95;;
28180;SDS011;15464;50.988;10.318;2023-06-19T02:07:33;7.50;;;6.80;;
28180;SDS011;15464;50.988;10.318;2023-06-19T02:10:00;8.23;;;6.72;;
28180;SDS011;15464;50.988;10.318;2023-06-19T02:12:27;7.55;;;6.70;;
28180;SDS011;15464;50.988;10.318;2023-06-19T02:14:54;7.82;;;7.13;;
28180;SDS011;15464;50.988;10.318;2023-06-19T02:17:20;7.68;;;6.97;;
28180;SDS011;15464;50.988;10.318;2023-06-19T02:19:47;7.72;;;6.95;;
28180;SDS011;15464;50.988;10.318;2023-06-19T02:22:14;8.20;;;7.40;;
28180;SDS011;15464;50.988;10.318;2023-06-19T02:24:40;7.88;;;7.18;;
28180;SDS011;15464;50.988;10.318;2023-06-19T02:27:07;7.80;;;7.10;;
28180;SDS011;15464;50.988;10.318;2023-06-19T02:29:34;7.85;;;7.07;;
28180;SDS011;15464;50.988;10.318;2023-06-19T02:32:01;7.80;;;7.15;;
28180;SDS011;15464;50.988;10.318;2023-06-19T02:34:28;8.02;;;7.30;;
28180;SDS011;15464;50.988;10.318;2023-06-19T02:36:55;7.85;;;7.15;;
28180;SDS011;15464;50.988;10.318;2023-06-19T02:39:22;7.63;;;7.00;;
28180;SDS011;15464;50.988;10.318;2023-06-19T02:41:49;8.77;;;7.90;;
28180;SDS011;15464;50.988;10.318;2023-06-19T02:44:16;7.78;;;7.03;;
28180;SDS011;15464;50.988;10.318;2023-06-19T02:46:43;8.10;;;7.30;;
28180;SDS011;15464;50.988;10.318;2023-06-19T02:49:09;7.95;;;7.15;;
28180;SDS011;15464;50.988;10.318;2023-06-19T02:51:36;7.85;;;7.15;;
28180;SDS011;15464;50.988;10.318;2023-06-19T02:54:05;7.82;;;7.13;;
28180;SDS011;15464;50.988;10.318;2023-06-19T02:56:32;8.05;;;7.25;;
28180;SDS011;15464;50.988;10.318;2023-06-19T02:58:59;8.30;;;7.60;;
28180;SDS011;15464;50.988;10.318;2023-06-19T03:01:26;8.00;;;7.20;;
28180;SDS011;15464;50.988;10.318;2023-06-19T03:03:52;7.82;;;7.13;;
28180;SDS011;15464;50.988;10.318;2023-06-19T03:06:19;7.85;;;7.10;;
28180;SDS011;15464;50.988;10.318;2023-06-19T03:08:46;8.38;;;7.72;;
28180;SDS011;15464;50.988;10.318;2023-06-19T03:11:13;7.75;;;7.15;;
28180;SDS011;15464;50.988;10.318;2023-06-19T03:13:52;7.28;;;6.57;;
28180;SDS011;15464;50.988;10.318;2023-06-19T03:16:20;8.50;;;7.47;;
28180;SDS011;15464;50.988;10.318;2023-06-19T03:18:47;7.97;;;7.18;;
28180;SDS011;15464;50.988;10.318;2023-06-19T03:21:18;8.45;;;7.63;;
28180;SDS011;15464;50.988;10.318;2023-06-19T03:23:46;8.45;;;7.65;;
28180;SDS011;15464;50.988;10.318;2023-06-19T03:26:13;8.10;;;7.35;;
28180;SDS011;15464;50.988;10.318;2023-06-19T03:28:39;8.15;;;7.35;;
28180;SDS011;15464;50.988;10.318;2023-06-19T03:31:06;8.07;;;7.38;;
28180;SDS011;15464;50.988;10.318;2023-06-19T03:33:33;8.10;;;7.40;;
28180;SDS011;15464;50.988;10.318;2023-06-19T03:35:59;8.35;;;7.32;;
28180;SDS011;15464;50.988;10.318;2023-06-19T03:38:26;8.30;;;7.30;;
28180;SDS011;15464;50.988;10.318;2023-06-19T03:40:53;7.63;;;6.93;;
28180;SDS011;15464;50.988;10.318;2023-06-19T03:43:20;8.00;;;7.30;;
28180;SDS011;15464;50.988;10.318;2023-06-19T03:45:46;8.40;;;7.60;;
28180;SDS011;15464;50.988;10.318;2023-06-19T03:48:13;8.73;;;7.93;;
28180;SDS011;15464;50.988;10.318;2023-06-19T03:50:40;8.15;;;7.35;;
28180;SDS011;15464;50.988;10.318;2023-06-19T03:53:07;8.82;;;8.02;;
28180;SDS011;15464;50.988;10.318;2023-06-19T03:55:33;8.10;;;7.30;;
28180;SDS011;15464;50.988;10.318;2023-06-19T03:58:00;8.32;;;7.43;;
28180;SDS011;15464;50.988;10.318;2023-06-19T04:00:27;8.43;;;7.60;;
28180;SDS011;15464;50.988;10.318;2023-06-19T04:02:54;8.52;;;7.72;;
28180;SDS011;15464;50.988;10.318;2023-06-19T04:05:20;9.07;;;8.27;;
28180;SDS011;15464;50.988;10.318;2023-06-19T04:07:47;8.75;;;7.93;;
28180;SDS011;15464;50.988;10.318;2023-06-19T04:10:14;8.57;;;7.68;;
28180;SDS011;15464;50.988;10.318;2023-06-19T04:12:41;9.40;;;8.55;;
28180;SDS011;15464;50.988;10.318;2023-06-19T04:15:08;8.52;;;7.82;;
28180;SDS011;15464;50.988;10.318;2023-06-19T04:17:35;8.15;;;7.50;;
28180;SDS011;15464;50.988;10.318;2023-06-19T04:20:06;8.68;;;7.88;;
28180;SDS011;15464;50.988;10.318;2023-06-19T04:22:45;8.60;;;7.45;;
28180;SDS011;15464;50.988;10.318;2023-06-19T04:25:12;8.82;;;7.93;;
28180;SDS011;15464;50.988;10.318;2023-06-19T04:27:39;9.13;;;8.30;;
28180;SDS011;15464;50.988;10.318;2023-06-19T04:30:06;8.50;;;7.70;;
28180;SDS011;15464;50.988;10.318;2023-06-19T04:32:33;8.93;;;8.13;;
28180;SDS011;15464;50.988;10.318;2023-06-19T04:35:07;9.38;;;8.43;;
28180;SDS011;15464;50.988;10.318;2023-06-19T04:37:35;8.60;;;7.85;;
28180;SDS011;15464;50.988;10.318;2023-06-19T04:40:02;8.70;;;7.93;;
28180;SDS011;15464;50.988;10.318;2023-06-19T04:42:34;8.82;;;8.02;;
28180;SDS011;15464;50.988;10.318;2023-06-19T04:45:00;8.88;;;8.02;;
28180;SDS011;15464;50.988;10.318;2023-06-19T04:47:27;9.38;;;7.85;;
28180;SDS011;15464;50.988;10.318;2023-06-19T04:50:09;8.57;;;7.82;;
28180;SDS011;15464;50.988;10.318;2023-06-19T04:52:35;8.73;;;7.68;;
28180;SDS011;15464;50.988;10.318;2023-06-19T04:55:07;8.48;;;7.68;;
28180;SDS011;15464;50.988;10.318;2023-06-19T04:57:37;8.00;;;7.30;;
28180;SDS011;15464;50.988;10.318;2023-06-19T05:00:04;8.07;;;7.40;;
28180;SDS011;15464;50.988;10.318;2023-06-19T05:02:36;8.60;;;7.78;;
28180;SDS011;15464;50.988;10.318;2023-06-19T05:05:03;8.90;;;8.13;;
28180;SDS011;15464;50.988;10.318;2023-06-19T05:07:30;9.25;;;7.97;;
28180;SDS011;15464;50.988;10.318;2023-06-19T05:09:58;8.93;;;8.00;;
28180;SDS011;15464;50.988;10.318;2023-06-19T05:12:25;9.45;;;8.05;;
28180;SDS011;15464;50.988;10.318;2023-06-19T05:14:51;9.55;;;7.75;;
28180;SDS011;15464;50.988;10.318;2023-06-19T05:17:18;8.65;;;7.85;;
28180;SDS011;15464;50.988;10.318;2023-06-19T05:19:45;9.07;;;7.70;;
28180;SDS011;15464;50.988;10.318;2023-06-19T05:22:12;8.85;;;7.97;;
28180;SDS011;15464;50.988;10.318;2023-06-19T05:24:39;10.40;;;7.80;;
28180;SDS011;15464;50.988;10.318;2023-06-19T05:27:06;10.25;;;7.80;;
28180;SDS011;15464;50.988;10.318;2023-06-19T05:29:33;8.65;;;7.85;;
28180;SDS011;15464;50.988;10.318;2023-06-19T05:31:59;10.13;;;9.20;;
28180;SDS011;15464;50.988;10.318;2023-06-19T05:34:26;9.18;;;8.07;;
28180;SDS011;15464;50.988;10.318;2023-06-19T05:36:53;8.95;;;8.13;;
28180;SDS011;15464;50.988;10.318;2023-06-19T05:39:19;9.30;;;8.45;;
28180;SDS011;15464;50.988;10.318;2023-06-19T05:41:46;10.00;;;8.20;;
28180;SDS011;15464;50.988;10.318;2023-06-19T05:44:14;11.40;;;8.23;;
28180;SDS011;15464;50.988;10.318;2023-06-19T05:46:43;14.68;;;8.27;;
28180;SDS011;15464;50.988;10.318;2023-06-19T05:49:10;10.23;;;8.10;;
28180;SDS011;15464;50.988;10.318;2023-06-19T05:51:37;12.60;;;8.13;;
28180;SDS011;15464;50.988;10.318;2023-06-19T05:54:03;9.82;;;8.32;;
28180;SDS011;15464;50.988;10.318;2023-06-19T05:56:31;10.18;;;8.48;;
28180;SDS011;15464;50.988;10.318;2023-06-19T05:59:00;9.55;;;8.10;;
28180;SDS011;15464;50.988;10.318;2023-06-19T06:01:31;7.87;;;7.00;;
28180;SDS011;15464;50.988;10.318;2023-06-19T06:03:58;9.57;;;8.52;;
28180;SDS011;15464;50.988;10.318;2023-06-19T06:06:25;8.82;;;8.02;;
28180;SDS011;15464;50.988;10.318;2023-06-19T06:08:52;9.32;;;8.50;;
28180;SDS011;15464;50.988;10.318;2023-06-19T06:11:19;8.25;;;7.45;;
28180;SDS011;15464;50.988;10.318;2023-06-19T06:13:46;10.50;;;7.82;;
28180;SDS011;15464;50.988;10.318;2023-06-19T06:16:12;11.95;;;8.77;;
28180;SDS011;15464;50.988;10.318;2023-06-19T06:18:40;10.45;;;7.93;;
28180;SDS011;15464;50.988;10.318;2023-06-19T06:21:07;10.32;;;7.45;;
28180;SDS011;15464;50.988;10.318;2023-06-19T06:23:34;9.65;;;7.50;;
28180;SDS011;15464;50.988;10.318;2023-06-19T06:26:01;8.02;;;7.28;;
28180;SDS011;15464;50.988;10.318;2023-06-19T06:28:29;7.70;;;6.88;;
28180;SDS011;15464;50.988;10.318;2023-06-19T06:30:57;8.52;;;7.70;;
28180;SDS011;15464;50.988;10.318;2023-06-19T06:33:24;8.98;;;8.13;;
28180;SDS011;15464;50.988;10.318;2023-06-19T06:35:50;8.60;;;7.80;;
28180;SDS011;15464;50.988;10.318;2023-06-19T06:38:20;8.45;;;7.68;;
28180;SDS011;15464;50.988;10.318;2023-06-19T06:40:46;8.57;;;7.60;;
28180;SDS011;15464;50.988;10.318;2023-06-19T06:43:13;8.30;;;7.60;;
28180;SDS011;15464;50.988;10.318;2023-06-19T06:45:40;8.45;;;7.30;;
28180;SDS011;15464;50.988;10.318;2023-06-19T06:48:09;8.35;;;6.97;;
28180;SDS011;15464;50.988;10.318;2023-06-19T06:50:36;8.30;;;7.53;;
28180;SDS011;15464;50.988;10.318;2023-06-19T06:53:02;8.77;;;7.95;;
28180;SDS011;15464;50.988;10.318;2023-06-19T06:55:29;10.50;;;7.60;;
28180;SDS011;15464;50.988;10.318;2023-06-19T06:57:56;9.55;;;8.23;;
28180;SDS011;15464;50.988;10.318;2023-06-19T07:00:23;8.63;;;7.82;;
28180;SDS011;15464;50.988;10.318;2023-06-19T07:02:50;9.32;;;7.65;;
28180;SDS011;15464;50.988;10.318;2023-06-19T07:05:17;10.48;;;9.20;;
28180;SDS011;15464;50.988;10.318;2023-06-19T07:07:44;9.65;;;7.88;;
28180;SDS011;15464;50.988;10.318;2023-06-19T07:10:11;11.90;;;8.13;;
28180;SDS011;15464;50.988;10.318;2023-06-19T07:12:45;9.43;;;7.07;;
28180;SDS011;15464;50.988;10.318;2023-06-19T07:15:13;9.52;;;8.07;;
28180;SDS011;15464;50.988;10.318;2023-06-19T07:17:39;8.50;;;7.70;;
28180;SDS011;15464;50.988;10.318;2023-06-19T07:20:06;7.72;;;7.03;;
28180;SDS011;15464;50.988;10.318;2023-06-19T07:22:34;8.13;;;7.32;;
28180;SDS011;15464;50.988;10.318;2023-06-19T07:25:01;9.95;;;7.47;;
28180;SDS011;15464;50.988;10.318;2023-06-19T07:27:28;8.05;;;7.00;;
28180;SDS011;15464;50.988;10.318;2023-06-19T07:29:55;8.15;;;7.07;;
28180;SDS011;15464;50.988;10.318;2023-06-19T07:32:21;10.45;;;7.78;;
28180;SDS011;15464;50.988;10.318;2023-06-19T07:34:48;8.15;;;7.40;;
28180;SDS011;15464;50.988;10.318;2023-06-19T07:37:15;8.68;;;7.13;;
28180;SDS011;15464;50.988;10.318;2023-06-19T07:39:44;8.18;;;6.63;;
28180;SDS011;15464;50.988;10.318;2023-06-19T07:42:15;9.40;;;6.68;;
28180;SDS011;15464;50.988;10.318;2023-06-19T07:44:43;8.80;;;7.82;;
28180;SDS011;15464;50.988;10.318;2023-06-19T07:47:10;7.85;;;7.05;;
28180;SDS011;15464;50.988;10.318;2023-06-19T07:49:37;7.75;;;6.95;;
28180;SDS011;15464;50.988;10.318;2023-06-19T07:52:04;7.55;;;6.90;;
28180;SDS011;15464;50.988;10.318;2023-06-19T07:54:33;8.32;;;7.10;;
28180;SDS011;15464;50.988;10.318;2023-06-19T07:57:00;12.25;;;6.80;;
28180;SDS011;15464;50.988;10.318;2023-06-19T07:59:27;7.45;;;6.75;;
28180;SDS011;15464;50.988;10.318;2023-06-19T08:01:54;7.63;;;6.90;;
28180;SDS011;15464;50.988;10.318;2023-06-19T08:04:21;7.45;;;6.55;;
28180;SDS011;15464;50.988;10.318;2023-06-19T08:06:47;9.55;;;6.90;;
28180;SDS011;15464;50.988;10.318;2023-06-19T08:09:14;7.93;;;6.70;;
28180;SDS011;15464;50.988;10.318;2023-06-19T08:11:41;7.18;;;6.55;;
28180;SDS011;15464;50.988;10.318;2023-06-19T08:14:07;7.30;;;6.70;;
28180;SDS011;15464;50.988;10.318;2023-06-19T08:16:34;7.53;;;6.45;;
28180;SDS011;15464;50.988;10.318;2023-06-19T08:19:01;9.60;;;6.57;;
28180;SDS011;15464;50.988;10.318;2023-06-19T08:21:28;7.07;;;6.47;;
28180;SDS011;15464;50.988;10.318;2023-06-19T08:23:55;6.57;;;5.97;;
28180;SDS011;15464;50.988;10.318;2023-06-19T08:26:22;7.05;;;5.97;;
28180;SDS011;15464;50.988;10.318;2023-06-19T08:28:48;6.53;;;6.03;;
28180;SDS011;15464;50.988;10.318;2023-06-19T08:31:15;6.75;;;6.07;;
28180;SDS011;15464;50.988;10.318;2023-06-19T08:33:43;6.90;;;6.30;;
28180;SDS011;15464;50.988;10.318;2023-06-19T08:36:09;6.00;;;5.40;;
28180;SDS011;15464;50.988;10.318;2023-06-19T08:38:36;6.75;;;6.13;;
28180;SDS011;15464;50.988;10.318;2023-06-19T08:41:03;7.25;;;5.95;;
28180;SDS011;15464;50.988;10.318;2023-06-19T08:43:30;8.00;;;5.85;;
28180;SDS011;15464;50.988;10.318;2023-06-19T08:48:36;7.72;;;5.40;;
28180;SDS011;15464;50.988;10.318;2023-06-19T08:51:04;8.93;;;5.70;;
28180;SDS011;15464;50.988;10.318;2023-06-19T08:53:33;6.78;;;5.35;;
28180;SDS011;15464;50.988;10.318;2023-06-19T08:56:09;5.68;;;5.15;;
28180;SDS011;15464;50.988;10.318;2023-06-19T08:58:37;6.15;;;5.55;;
28180;SDS011;15464;50.988;10.318;2023-06-19T09:01:04;5.50;;;5.00;;
28180;SDS011;15464;50.988;10.318;2023-06-19T09:03:31;5.80;;;5.30;;
28180;SDS011;15464;50.988;10.318;2023-06-19T09:06:02;5.47;;;4.90;;
28180;SDS011;15464;50.988;10.318;2023-06-19T09:08:30;6.03;;;5.40;;
28180;SDS011;15464;50.988;10.318;2023-06-19T09:11:01;6.82;;;5.43;;
28180;SDS011;15464;50.988;10.318;2023-06-19T09:13:29;6.47;;;5.80;;
28180;SDS011;15464;50.988;10.318;2023-06-19T09:15:57;6.10;;;5.47;;
28180;SDS011;15464;50.988;10.318;2023-06-19T09:18:29;5.80;;;5.30;;
28180;SDS011;15464;50.988;10.318;2023-06-19T09:21:20;6.22;;;5.10;;
28180;SDS011;15464;50.988;10.318;2023-06-19T09:23:51;5.68;;;5.18;;
28180;SDS011;15464;50.988;10.318;2023-06-19T09:26:18;5.78;;;4.97;;
28180;SDS011;15464;50.988;10.318;2023-06-19T09:28:46;5.97;;;5.05;;
28180;SDS011;15464;50.988;10.318;2023-06-19T09:31:16;5.30;;;4.80;;
28180;SDS011;15464;50.988;10.318;2023-06-19T09:33:43;5.22;;;4.82;;
28180;SDS011;15464;50.988;10.318;2023-06-19T09:36:10;5.28;;;4.85;;
28180;SDS011;15464;50.988;10.318;2023-06-19T09:38:37;5.30;;;4.90;;
28180;SDS011;15464;50.988;10.318;2023-06-19T09:41:07;4.80;;;4.40;;
28180;SDS011;15464;50.988;10.318;2023-06-19T09:43:36;4.78;;;4.38;;
28180;SDS011;15464;50.988;10.318;2023-06-19T09:46:05;4.93;;;4.43;;
28180;SDS011;15464;50.988;10.318;2023-06-19T09:48:33;4.80;;;4.40;;
28180;SDS011;15464;50.988;10.318;2023-06-19T09:53:37;5.18;;;4.47;;
28180;SDS011;15464;50.988;10.318;2023-06-19T09:56:04;4.63;;;4.22;;
28180;SDS011;15464;50.988;10.318;2023-06-19T09:58:31;4.72;;;4.20;;
28180;SDS011;15464;50.988;10.318;2023-06-19T10:00:58;4.32;;;3.92;;
28180;SDS011;15464;50.988;10.318;2023-06-19T10:03:32;4.45;;;4.03;;
28180;SDS011;15464;50.988;10.318;2023-06-19T10:06:00;4.40;;;4.00;;
28180;SDS011;15464;50.988;10.318;2023-06-19T10:08:31;5.27;;;4.33;;
28180;SDS011;15464;50.988;10.318;2023-06-19T10:11:04;4.07;;;3.78;;
28180;SDS011;15464;50.988;10.318;2023-06-19T10:13:32;4.25;;;3.95;;
28180;SDS011;15464;50.988;10.318;2023-06-19T10:16:01;7.68;;;4.13;;
28180;SDS011;15464;50.988;10.318;2023-06-19T10:18:27;4.47;;;4.03;;
28180;SDS011;15464;50.988;10.318;2023-06-19T10:20:54;4.40;;;4.00;;
28180;SDS011;15464;50.988;10.318;2023-06-19T10:23:22;5.43;;;3.63;;
28180;SDS011;15464;50.988;10.318;2023-06-19T10:25:58;4.20;;;3.90;;
28180;SDS011;15464;50.988;10.318;2023-06-19T10:28:30;4.90;;;4.10;;
28180;SDS011;15464;50.988;10.318;2023-06-19T10:33:30;4.30;;;3.83;;
28180;SDS011;15464;50.988;10.318;2023-06-19T10:36:01;4.03;;;3.63;;
28180;SDS011;15464;50.988;10.318;2023-06-19T10:38:40;6.00;;;3.88;;
28180;SDS011;15464;50.988;10.318;2023-06-19T10:41:14;5.38;;;3.92;;
28180;SDS011;15464;50.988;10.318;2023-06-19T10:46:23;3.90;;;3.60;;
28180;SDS011;15464;50.988;10.318;2023-06-19T10:48:51;3.83;;;3.53;;
28180;SDS011;15464;50.988;10.318;2023-06-19T10:51:22;4.20;;;3.80;;
28180;SDS011;15464;50.988;10.318;2023-06-19T10:53:50;4.35;;;3.72;;
28180;SDS011;15464;50.988;10.318;2023-06-19T10:56:20;4.15;;;3.55;;
28180;SDS011;15464;50.988;10.318;2023-06-19T10:58:48;4.55;;;3.90;;
28180;SDS011;15464;50.988;10.318;2023-06-19T11:01:32;5.03;;;3.90;;
28180;SDS011;15464;50.988;10.318;2023-06-19T11:04:08;3.58;;;3.28;;
28180;SDS011;15464;50.988;10.318;2023-06-19T11:06:37;6.10;;;3.53;;
28180;SDS011;15464;50.988;10.318;2023-06-19T11:09:08;3.70;;;3.40;;
28180;SDS011;15464;50.988;10.318;2023-06-19T11:11:40;3.80;;;3.42;;
28180;SDS011;15464;50.988;10.318;2023-06-19T11:14:12;3.88;;;3.38;;
28180;SDS011;15464;50.988;10.318;2023-06-19T11:16:41;4.20;;;3.90;;
28180;SDS011;15464;50.988;10.318;2023-06-19T11:19:14;4.63;;;3.63;;
28180;SDS011;15464;50.988;10.318;2023-06-19T11:21:45;4.07;;;3.78;;
28180;SDS011;15464;50.988;10.318;2023-06-19T11:24:16;7.40;;;4.07;;
28180;SDS011;15464;50.988;10.318;2023-06-19T11:26:44;3.83;;;3.53;;
28180;SDS011;15464;50.988;10.318;2023-06-19T11:29:24;3.75;;;3.00;;
28180;SDS011;15464;50.988;10.318;2023-06-19T11:32:08;7.43;;;3.83;;
28180;SDS011;15464;50.988;10.318;2023-06-19T11:34:37;4.10;;;3.70;;
28180;SDS011;15464;50.988;10.318;2023-06-19T11:37:11;3.97;;;3.58;;
28180;SDS011;15464;50.988;10.318;2023-06-19T11:39:38;4.70;;;3.40;;
28180;SDS011;15464;50.988;10.318;2023-06-19T11:42:06;3.53;;;3.22;;
28180;SDS011;15464;50.988;10.318;2023-06-19T11:44:33;3.63;;;3.33;;
28180;SDS011;15464;50.988;10.318;2023-06-19T11:46:59;5.47;;;3.60;;
28180;SDS011;15464;50.988;10.318;2023-06-19T11:49:26;5.03;;;3.28;;
28180;SDS011;15464;50.988;10.318;2023-06-19T11:51:58;3.47;;;3.20;;
28180;SDS011;15464;50.988;10.318;2023-06-19T11:54:25;3.28;;;3.08;;
28180;SDS011;15464;50.988;10.318;2023-06-19T11:56:52;4.60;;;3.30;;
28180;SDS011;15464;50.988;10.318;2023-06-19T11:59:19;3.35;;;3.15;;
28180;SDS011;15464;50.988;10.318;2023-06-19T12:01:45;3.88;;;3.58;;
28180;SDS011;15464;50.988;10.318;2023-06-19T12:04:13;3.93;;;3.53;;
28180;SDS011;15464;50.988;10.318;2023-06-19T12:06:41;3.43;;;3.10;;
28180;SDS011;15464;50.988;10.318;2023-06-19T12:09:08;3.50;;;3.20;;
28180;SDS011;15464;50.988;10.318;2023-06-19T12:11:36;4.60;;;3.50;;
28180;SDS011;15464;50.988;10.318;2023-06-19T12:14:02;4.55;;;3.83;;
28180;SDS011;15464;50.988;10.318;2023-06-19T12:16:29;8.02;;;4.07;;
28180;SDS011;15464;50.988;10.318;2023-06-19T12:18:56;3.78;;;3.40;;
28180;SDS011;15464;50.988;10.318;2023-06-19T12:21:23;3.13;;;2.92;;
28180;SDS011;15464;50.988;10.318;2023-06-19T12:24:02;3.70;;;3.40;;
28180;SDS011;15464;50.988;10.318;2023-06-19T12:26:30;4.30;;;3.50;;
28180;SDS011;15464;50.988;10.318;2023-06-19T12:28:57;4.63;;;3.22;;
28180;SDS011;15464;50.988;10.318;2023-06-19T12:31:24;6.40;;;3.55;;
28180;SDS011;15464;50.988;10.318;2023-06-19T12:33:51;3.70;;;3.30;;
28180;SDS011;15464;50.988;10.318;2023-06-19T12:36:18;4.00;;;3.60;;
28180;SDS011;15464;50.988;10.318;2023-06-19T12:38:44;4.28;;;3.63;;
28180;SDS011;15464;50.988;10.318;2023-06-19T12:41:13;3.80;;;3.50;;
28180;SDS011;15464;50.988;10.318;2023-06-19T12:43:40;5.13;;;3.67;;
28180;SDS011;15464;50.988;10.318;2023-06-19T12:46:06;4.55;;;3.50;;
28180;SDS011;15464;50.988;10.318;2023-06-19T12:48:33;5.20;;;3.42;;
28180;SDS011;15464;50.988;10.318;2023-06-19T12:51:00;3.55;;;3.25;;
28180;SDS011;15464;50.988;10.318;2023-06-19T12:53:27;3.53;;;3.22;;
28180;SDS011;15464;50.988;10.318;2023-06-19T12:58:31;3.95;;;3.65;;
28180;SDS011;15464;50.988;10.318;2023-06-19T13:00:58;4.05;;;3.40;;
28180;SDS011;15464;50.988;10.318;2023-06-19T13:03:25;3.67;;;3.35;;
28180;SDS011;15464;50.988;10.318;2023-06-19T13:05:51;4.30;;;3.90;;
28180;SDS011;15464;50.988;10.318;2023-06-19T13:08:18;5.35;;;3.70;;
28180;SDS011;15464;50.988;10.318;2023-06-19T13:10:45;4.55;;;3.60;;
28180;SDS011;15464;50.988;10.318;2023-06-19T13:13:12;6.13;;;3.80;;
28180;SDS011;15464;50.988;10.318;2023-06-19T13:15:39;4.13;;;3.72;;
28180;SDS011;15464;50.988;10.318;2023-06-19T13:18:06;4.18;;;3.78;;
28180;SDS011;15464;50.988;10.318;2023-06-19T13:20:33;4.78;;;3.50;;
28180;SDS011;15464;50.988;10.318;2023-06-19T13:22:59;5.28;;;3.65;;
28180;SDS011;15464;50.988;10.318;2023-06-19T13:25:26;6.38;;;4.05;;
28180;SDS011;15464;50.988;10.318;2023-06-19T13:27:53;3.88;;;3.58;;
28180;SDS011;15464;50.988;10.318;2023-06-19T13:30:20;5.15;;;3.42;;
28180;SDS011;15464;50.988;10.318;2023-06-19T13:32:47;4.35;;;3.80;;
28180;SDS011;15464;50.988;10.318;2023-06-19T13:35:14;4.05;;;3.70;;
28180;SDS011;15464;50.988;10.318;2023-06-19T13:37:40;4.15;;;3.78;;
28180;SDS011;15464;50.988;10.318;2023-06-19T13:40:07;3.70;;;3.40;;
28180;SDS011;15464;50.988;10.318;2023-06-19T13:42:34;3.88;;;3.58;;
28180;SDS011;15464;50.988;10.318;2023-06-19T13:45:02;3.83;;;3.53;;
28180;SDS011;15464;50.988;10.318;2023-06-19T13:47:29;3.90;;;3.58;;
28180;SDS011;15464;50.988;10.318;2023-06-19T13:49:56;4.28;;;3.88;;
28180;SDS011;15464;50.988;10.318;2023-06-19T13:52:23;4.57;;;4.15;;
28180;SDS011;15464;50.988;10.318;2023-06-19T13:54:50;3.92;;;3.63;;
28180;SDS011;15464;50.988;10.318;2023-06-19T13:57:20;3.88;;;3.47;;
28180;SDS011;15464;50.988;10.318;2023-06-19T13:59:47;4.47;;;3.95;;
28180;SDS011;15464;50.988;10.318;2023-06-19T14:02:15;4.60;;;3.47;;
28180;SDS011;15464;50.988;10.318;2023-06-19T14:04:42;5.55;;;3.53;;
28180;SDS011;15464;50.988;10.318;2023-06-19T14:07:09;3.85;;;3.55;;
28180;SDS011;15464;50.988;10.318;2023-06-19T14:09:36;4.32;;;3.33;;
28180;SDS011;15464;50.988;10.318;2023-06-19T14:12:04;4.18;;;3.60;;
28180;SDS011;15464;50.988;10.318;2023-06-19T14:14:31;3.97;;;3.60;;
28180;SDS011;15464;50.988;10.318;2023-06-19T14:16:58;3.75;;;3.35;;
28180;SDS011;15464;50.988;10.318;2023-06-19T14:19:25;3.22;;;3.03;;
28180;SDS011;15464;50.988;10.318;2023-06-19T14:21:51;8.52;;;3.97;;
28180;SDS011;15464;50.988;10.318;2023-06-19T14:24:18;4.03;;;3.63;;
28180;SDS011;15464;50.988;10.318;2023-06-19T14:26:45;3.50;;;3.20;;
28180;SDS011;15464;50.988;10.318;2023-06-19T14:29:12;3.60;;;3.30;;
28180;SDS011;15464;50.988;10.318;2023-06-19T14:31:41;4.07;;;3.70;;
28180;SDS011;15464;50.988;10.318;2023-06-19T14:34:08;4.07;;;3.67;;
28180;SDS011;15464;50.988;10.318;2023-06-19T14:36:37;5.32;;;3.33;;
28180;SDS011;15464;50.988;10.318;2023-06-19T14:39:04;3.42;;;3.15;;
28180;SDS011;15464;50.988;10.318;2023-06-19T14:41:31;3.88;;;3.13;;
28180;SDS011;15464;50.988;10.318;2023-06-19T14:43:58;3.85;;;3.50;;
28180;SDS011;15464;50.988;10.318;2023-06-19T14:46:25;3.67;;;3.38;;
28180;SDS011;15464;50.988;10.318;2023-06-19T14:49:05;3.90;;;3.50;;
28180;SDS011;15464;50.988;10.318;2023-06-19T14:51:32;7.57;;;3.60;;
28180;SDS011;15464;50.988;10.318;2023-06-19T14:53:59;3.72;;;3.42;;